^^
Lisbon, NH - Weather Station Historical Data
Daily Summary for September 11, 2021 Units:  English    Metric   Both
Daily Weekly Monthly Yearly
  High: Low: Average:
Temperature: 71.5 °F 46 °F 57.5 °F
Dew Point: 59.8 °F 46 °F 52.2 °F
Humidity: 100% 53.3% 85%
Wind Speed: 4.3mph 0mph 0.5mph
Wind Gust: 10mph - -
Wind- - SW
Pressure: 30.09 in 29.96 in -
Precipitation: 0.00 in    
 
 
Tabular Data for September 11, 2021
Time Temperature Dew Point Pressure Wind Wind Speed Wind Gust Humidity Rainfall Rate (Hourly) solar
00:04 49.5 °F 49.5 °F 29.96 in Calm     100% 0.00 in 0 W/m2
00:09 49.5 °F 49.5 °F 29.96 in Calm     100% 0.00 in 0 W/m2
00:14 49.5 °F 49.5 °F 29.96 in Calm     100% 0.00 in 0 W/m2
00:19 49.5 °F 49.5 °F 29.96 in Calm     100% 0.00 in 0 W/m2
00:24 49.6 °F 49.6 °F 29.96 in Calm     100% 0.00 in 0 W/m2
00:29 49.5 °F 49.5 °F 29.97 in Calm     100% 0.00 in 0 W/m2
00:34 49.5 °F 49.5 °F 29.97 in Calm     100% 0.00 in 0 W/m2
00:39 49.6 °F 49.6 °F 29.97 in Calm     100% 0.00 in 0 W/m2
00:44 49.6 °F 49.6 °F 29.97 in Calm     100% 0.00 in 0 W/m2
00:49 49.5 °F 49.5 °F 29.97 in Calm     100% 0.00 in 0 W/m2
00:54 49.4 °F 49.4 °F 29.97 in Calm     100% 0.00 in 0 W/m2
00:59 49.4 °F 49.4 °F 29.98 in Calm     100% 0.00 in 0 W/m2
01:04 49.3 °F 49.3 °F 29.98 in Calm     100% 0.00 in 0 W/m2
01:09 49.4 °F 49.4 °F 29.98 in Calm     100% 0.00 in 0 W/m2
01:14 49.2 °F 49.2 °F 29.98 in Calm     100% 0.00 in 0 W/m2
01:19 49.2 °F 49.2 °F 29.98 in Calm     100% 0.00 in 0 W/m2
01:24 49 °F 49 °F 29.98 in Calm     100% 0.00 in 0 W/m2
01:29 48.8 °F 48.8 °F 29.99 in Calm     100% 0.00 in 0 W/m2
01:34 48.6 °F 48.6 °F 29.99 in Calm     100% 0.00 in 0 W/m2
01:39 48.5 °F 48.5 °F 29.99 in Calm     100% 0.00 in 0 W/m2
01:44 48.2 °F 48.2 °F 29.99 in Calm     100% 0.00 in 0 W/m2
01:49 48.1 °F 48.1 °F 29.99 in Calm     100% 0.00 in 0 W/m2
01:54 48 °F 48 °F 29.99 in Calm     100% 0.00 in 0 W/m2
01:59 48 °F 48 °F 29.99 in Calm     100% 0.00 in 0 W/m2
02:04 48 °F 48 °F 29.99 in Calm     100% 0.00 in 0 W/m2
02:09 48 °F 48 °F 29.99 in Calm     100% 0.00 in 0 W/m2
02:14 47.9 °F 47.9 °F 30.00 in Calm     100% 0.00 in 0 W/m2
02:19 47.8 °F 47.8 °F 30.00 in Calm     100% 0.00 in 0 W/m2
02:24 47.7 °F 47.7 °F 30.00 in Calm     100% 0.00 in 0 W/m2
02:29 47.7 °F 47.7 °F 30.01 in Calm     100% 0.00 in 0 W/m2
02:34 47.7 °F 47.7 °F 30.01 in Calm     100% 0.00 in 0 W/m2
02:39 47.7 °F 47.7 °F 30.01 in Calm     100% 0.00 in 0 W/m2
02:44 47.6 °F 47.6 °F 30.01 in Calm     100% 0.00 in 0 W/m2
02:49 47.4 °F 47.4 °F 30.01 in Calm     100% 0.00 in 0 W/m2
02:54 47.3 °F 47.3 °F 30.01 in Calm     100% 0.00 in 0 W/m2
02:59 47.2 °F 47.2 °F 30.02 in Calm     100% 0.00 in 0 W/m2
03:04 47.2 °F 47.2 °F 30.02 in Calm     100% 0.00 in 0 W/m2
03:09 47.2 °F 47.2 °F 30.02 in Calm     100% 0.00 in 0 W/m2
03:14 47.1 °F 47.1 °F 30.02 in Calm     100% 0.00 in 0 W/m2
03:19 47 °F 47 °F 30.02 in Calm     100% 0.00 in 0 W/m2
03:24 47 °F 47 °F 30.02 in Calm     100% 0.00 in 0 W/m2
03:29 47 °F 47 °F 30.02 in Calm     100% 0.00 in 0 W/m2
03:34 46.9 °F 46.9 °F 30.02 in Calm     100% 0.00 in 0 W/m2
03:39 46.8 °F 46.8 °F 30.02 in Calm     100% 0.00 in 0 W/m2
03:44 46.8 °F 46.8 °F 30.03 in Calm     100% 0.00 in 0 W/m2
03:49 46.8 °F 46.8 °F 30.03 in Calm     100% 0.00 in 0 W/m2
03:54 46.8 °F 46.8 °F 30.03 in Calm     100% 0.00 in 0 W/m2
03:59 46.8 °F 46.8 °F 30.03 in Calm     100% 0.00 in 0 W/m2
04:04 47 °F 47 °F 30.03 in Calm     100% 0.00 in 0 W/m2
04:09 47 °F 47 °F 30.03 in Calm     100% 0.00 in 0 W/m2
04:14 47 °F 47 °F 30.03 in Calm     100% 0.00 in 0 W/m2
04:19 47 °F 47 °F 30.03 in Calm     100% 0.00 in 0 W/m2
04:24 47.1 °F 47.1 °F 30.03 in Calm     100% 0.00 in 0 W/m2
04:29 47.2 °F 47.2 °F 30.04 in Calm     100% 0.00 in 0 W/m2
04:34 47.3 °F 47.3 °F 30.04 in Calm     100% 0.00 in 0 W/m2
04:39 47.4 °F 47.4 °F 30.04 in Calm     100% 0.00 in 0 W/m2
04:44 47.4 °F 47.4 °F 30.04 in Calm     100% 0.00 in 0 W/m2
04:49 47.4 °F 47.4 °F 30.03 in Calm     100% 0.00 in 0 W/m2
04:54 47.4 °F 47.4 °F 30.03 in Calm     100% 0.00 in 0 W/m2
04:59 47.4 °F 47.4 °F 30.04 in Calm     100% 0.00 in 0 W/m2
05:04 47.6 °F 47.6 °F 30.04 in Calm     100% 0.00 in 0 W/m2
05:09 47.6 °F 47.6 °F 30.04 in Calm     100% 0.00 in 0 W/m2
05:14 47.6 °F 47.6 °F 30.04 in Calm     100% 0.00 in 0 W/m2
05:19 47.6 °F 47.6 °F 30.04 in Calm     100% 0.00 in 0 W/m2
05:24 47.6 °F 47.6 °F 30.04 in Calm     100% 0.00 in 0 W/m2
05:29 47.4 °F 47.4 °F 30.04 in Calm     100% 0.00 in 0 W/m2
05:34 47.6 °F 47.6 °F 30.04 in Calm     100% 0.00 in 0 W/m2
05:39 47.6 °F 47.6 °F 30.04 in Calm     100% 0.00 in 0 W/m2
05:44 47.6 °F 47.6 °F 30.04 in Calm     100% 0.00 in 0 W/m2
05:49 47.4 °F 47.4 °F 30.04 in Calm   1 mph 100% 0.00 in 0 W/m2
05:54 47.4 °F 47.4 °F 30.04 in Calm     100% 0.00 in 0 W/m2
05:59 47.4 °F 47.4 °F 30.05 in Calm     100% 0.00 in 0 W/m2
06:04 47.3 °F 47.3 °F 30.05 in Calm     100% 0.00 in 0 W/m2
06:09 47.3 °F 47.3 °F 30.05 in Calm     100% 0.00 in 0 W/m2
06:14 47.3 °F 47.3 °F 30.06 in Calm     100% 0.00 in 0 W/m2
06:19 47.2 °F 47.2 °F 30.06 in Calm     100% 0.00 in 0 W/m2
06:24 47.1 °F 47.1 °F 30.06 in Calm     100% 0.00 in 5 W/m2
06:29 47 °F 47 °F 30.06 in Calm     100% 0.00 in 5 W/m2
06:34 46.8 °F 46.8 °F 30.06 in Calm     100% 0.00 in 5 W/m2
06:39 46.7 °F 46.7 °F 30.06 in Calm     100% 0.00 in 5 W/m2
06:44 46.7 °F 46.7 °F 30.06 in Calm     100% 0.00 in 7 W/m2
06:49 46.5 °F 46.5 °F 30.06 in Calm     100% 0.00 in 9 W/m2
06:54 46.5 °F 46.5 °F 30.06 in Calm     100% 0.00 in 9 W/m2
06:59 46.4 °F 46.4 °F 30.07 in Calm     100% 0.00 in 11 W/m2
07:04 46.4 °F 46.4 °F 30.07 in Calm     100% 0.00 in 16 W/m2
07:09 46.2 °F 46.2 °F 30.07 in Calm     100% 0.00 in 26 W/m2
07:14 46.1 °F 46.1 °F 30.08 in Calm     100% 0.00 in 30 W/m2
07:19 46 °F 46 °F 30.08 in Calm     100% 0.00 in 40 W/m2
07:24 46 °F 46 °F 30.08 in Calm     100% 0.00 in 44 W/m2
07:29 46.1 °F 46.1 °F 30.08 in Calm     100% 0.00 in 44 W/m2
07:34 46.1 °F 46.1 °F 30.08 in Calm     100% 0.00 in 53 W/m2
07:39 46.1 °F 46.1 °F 30.08 in Calm     100% 0.00 in 44 W/m2
07:44 46.2 °F 46.2 °F 30.09 in Calm     100% 0.00 in 48 W/m2
07:49 46.3 °F 46.3 °F 30.09 in Calm     100% 0.00 in 56 W/m2
07:54 46.5 °F 46.5 °F 30.09 in Calm     100% 0.00 in 63 W/m2
07:59 46.6 °F 46.6 °F 30.09 in Calm     100% 0.00 in 90 W/m2
08:04 46.7 °F 46.7 °F 30.09 in Calm     100% 0.00 in 90 W/m2
08:09 46.9 °F 46.9 °F 30.09 in Calm     100% 0.00 in 97 W/m2
08:14 47.1 °F 47.1 °F 30.09 in Calm     100% 0.00 in 97 W/m2
08:19 47.2 °F 47.2 °F 30.09 in Calm     100% 0.00 in 134 W/m2
08:24 47.5 °F 47.5 °F 30.09 in Calm   1 mph 100% 0.00 in 167 W/m2
08:29 47.8 °F 47.8 °F 30.09 in Calm     100% 0.00 in 167 W/m2
08:34 47.9 °F 47.9 °F 30.09 in Calm     100% 0.00 in 90 W/m2
08:39 47.9 °F 47.9 °F 30.09 in Calm   1 mph 100% 0.00 in 76 W/m2
08:44 47.9 °F 47.9 °F 30.09 in Calm   1 mph 100% 0.00 in 56 W/m2
08:49 47.9 °F 47.9 °F 30.09 in Calm     100% 0.00 in 99 W/m2
08:54 48.1 °F 48.1 °F 30.09 in Calm     100% 0.00 in 165 W/m2
08:59 48.4 °F 48.4 °F 30.09 in Calm     100% 0.00 in 236 W/m2
09:04 48.7 °F 48.7 °F 30.09 in Calm     100% 0.00 in 238 W/m2
09:09 49.1 °F 49.1 °F 30.09 in Calm     100% 0.00 in 229 W/m2
09:14 49.4 °F 49.4 °F 30.09 in Calm   1 mph 100% 0.00 in 229 W/m2
09:19 49.8 °F 49.8 °F 30.09 in SSW 2.2 mph 5 mph 100% 0.00 in 241 W/m2
09:24 50.1 °F 50.1 °F 30.09 in SSW 2.6 mph 6 mph 100% 0.00 in 362 W/m2
09:29 50.2 °F 50.2 °F 30.09 in SSW 2.5 mph 5 mph 100% 0.00 in 538 W/m2
09:34 50.7 °F 50.7 °F 30.09 in SSW 1.4 mph 4 mph 100% 0.00 in 595 W/m2
09:39 51.6 °F 51.6 °F 30.09 in South 1.8 mph 6 mph 100% 0.00 in 619 W/m2
09:44 51.8 °F 51.8 °F 30.09 in South 2.4 mph 6 mph 100% 0.00 in 611 W/m2
09:49 52.4 °F 52.4 °F 30.09 in SE 1.3 mph 3 mph 100% 0.00 in 600 W/m2
09:54 53.2 °F 53.2 °F 30.09 in SSE 1.4 mph 3 mph 100% 0.00 in 609 W/m2
09:59 54 °F 54 °F 30.09 in SE 1.3 mph 3 mph 100% 0.00 in 621 W/m2
10:04 54.8 °F 54.8 °F 30.09 in South 2.1 mph 5 mph 100% 0.00 in 630 W/m2
10:09 55.5 °F 55.5 °F 30.09 in South 1.6 mph 5 mph 100% 0.00 in 640 W/m2
10:14 56.3 °F 56.3 °F 30.09 in South 2 mph 4 mph 100% 0.00 in 651 W/m2
10:19 56.8 °F 56.7 °F 30.08 in SSW 1.9 mph 5 mph 99.4% 0.00 in 665 W/m2
10:24 57.4 °F 56.7 °F 30.08 in South 1.3 mph 3 mph 97.6% 0.00 in 677 W/m2
10:29 58.2 °F 56.8 °F 30.08 in South 1.1 mph 2 mph 94.9% 0.00 in 683 W/m2
10:34 59.2 °F 57.1 °F 30.08 in South 1.2 mph 3 mph 92.7% 0.00 in 691 W/m2
10:39 60.2 °F 56.9 °F 30.08 in SSW 1.6 mph 5 mph 89% 0.00 in 702 W/m2
10:44 60.6 °F 56.6 °F 30.08 in SSW 1.2 mph 4 mph 86.6% 0.00 in 709 W/m2
10:49 61.3 °F 56.1 °F 30.08 in South 1.7 mph 4 mph 83% 0.00 in 721 W/m2
10:54 61.7 °F 55.5 °F 30.08 in South 1.7 mph 5 mph 80.1% 0.00 in 728 W/m2
10:59 62.3 °F 55.7 °F 30.08 in SSE 1.3 mph 3 mph 79% 0.00 in 737 W/m2
11:04 63.1 °F 55.8 °F 30.07 in SE 1.6 mph 4 mph 77% 0.00 in 743 W/m2
11:09 63.9 °F 56.2 °F 30.07 in North 0.5 mph 4 mph 76.1% 0.00 in 750 W/m2
11:14 64.9 °F 56.3 °F 30.07 in SSW 1 mph 5 mph 73.7% 0.00 in 760 W/m2
11:19 65.8 °F 55.9 °F 30.07 in SW 2.2 mph 7 mph 70.2% 0.00 in 778 W/m2
11:24 66.4 °F 56.2 °F 30.07 in SSW 1.1 mph 7 mph 69.6% 0.00 in 785 W/m2
11:29 67.2 °F 56.3 °F 30.07 in SSW 2.3 mph 6 mph 67.9% 0.00 in 788 W/m2
11:34 67.5 °F 56.2 °F 30.06 in South 2.3 mph 6 mph 66.9% 0.00 in 792 W/m2
11:39 67.7 °F 56 °F 30.06 in SSW 1.7 mph 5 mph 66.1% 0.00 in 809 W/m2
11:44 68.2 °F 55.7 °F 30.06 in SSW 1.5 mph 6 mph 64.3% 0.00 in 778 W/m2
11:49 68.7 °F 56.3 °F 30.06 in SW 2.1 mph 8 mph 64.5% 0.00 in 762 W/m2
11:54 69.2 °F 57 °F 30.06 in WNW 1.1 mph 3 mph 65.1% 0.00 in 679 W/m2
11:59 69.2 °F 56.2 °F 30.06 in West 1.5 mph 6 mph 63.3% 0.00 in 556 W/m2
12:04 69.3 °F 56.4 °F 30.05 in SW 1.8 mph 6 mph 63.5% 0.00 in 556 W/m2
12:09 69.2 °F 56.7 °F 30.05 in SW 1.2 mph 6 mph 64.5% 0.00 in 934 W/m2
12:14 69.5 °F 56.7 °F 30.05 in WSW 1.4 mph 4 mph 63.8% 0.00 in 843 W/m2
12:19 69.7 °F 56.5 °F 30.05 in SSW 2.3 mph 6 mph 63% 0.00 in 653 W/m2
12:24 69.9 °F 55.9 °F 30.05 in SSW 1.2 mph 6 mph 61.1% 0.00 in 614 W/m2
12:29 70 °F 55.8 °F 30.05 in SSW 1.6 mph 5 mph 60.6% 0.00 in 653 W/m2
12:34 70.3 °F 55.9 °F 30.04 in SSW 2.4 mph 6 mph 60.3% 0.00 in 758 W/m2
12:39 70.7 °F 55.7 °F 30.04 in South 0.8 mph 6 mph 59% 0.00 in 758 W/m2
12:44 71.2 °F 55.9 °F 30.04 in SW 3 mph 9 mph 58.4% 0.00 in 866 W/m2
12:49 71.3 °F 56.1 °F 30.04 in SW 3 mph 7 mph 58.6% 0.00 in 901 W/m2
12:54 71.5 °F 55.6 °F 30.04 in SW 4.3 mph 10 mph 57.3% 0.00 in 901 W/m2
12:59 71.2 °F 54.9 °F 30.04 in SW 1.6 mph 10 mph 56.4% 0.00 in 343 W/m2
13:04 70.9 °F 55.2 °F 30.03 in SW 2.8 mph 8 mph 57.4% 0.00 in 296 W/m2
13:09 70.9 °F 56.8 °F 30.03 in West 0.7 mph 2 mph 60.9% 0.00 in 243 W/m2
13:14 70.7 °F 56.3 °F 30.03 in NW 1 mph 4 mph 60.4% 0.00 in 243 W/m2
13:19 70.2 °F 56.8 °F 30.03 in Calm   1 mph 62.4% 0.00 in 204 W/m2
13:24 69.9 °F 56.7 °F 30.03 in Calm     62.9% 0.00 in 311 W/m2
13:29 69.8 °F 56.5 °F 30.03 in NNW 0.2 mph 1 mph 62.7% 0.00 in 311 W/m2
13:34 70 °F 57.1 °F 30.03 in Calm     63.7% 0.00 in 246 W/m2
13:39 70.2 °F 57.2 °F 30.03 in SE 0.7 mph 2 mph 63.4% 0.00 in 269 W/m2
13:44 70 °F 57 °F 30.03 in NNE 0.1 mph 2 mph 63.4% 0.00 in 269 W/m2
13:49 70.2 °F 55.4 °F 30.03 in NNW 0.4 mph 2 mph 59.6% 0.00 in 264 W/m2
13:54 70.3 °F 55.8 °F 30.03 in SSW 0.2 mph 2 mph 60% 0.00 in 255 W/m2
13:59 70.4 °F 56.7 °F 30.03 in SSW 0.2 mph 2 mph 61.8% 0.00 in 232 W/m2
14:04 70.4 °F 56.8 °F 30.02 in SSW 0.4 mph 2 mph 62% 0.00 in 187 W/m2
14:09 70.6 °F 55.8 °F 30.02 in South 0.6 mph 2 mph 59.3% 0.00 in 167 W/m2
14:14 70.9 °F 56.5 °F 30.02 in SW 0.4 mph 1 mph 60.3% 0.00 in 178 W/m2
14:19 70.9 °F 57 °F 30.02 in SSW 0.2 mph 2 mph 61.4% 0.00 in 188 W/m2
14:24 70.8 °F 58.3 °F 30.02 in SW 0.6 mph 3 mph 64.5% 0.00 in 199 W/m2
14:29 70.6 °F 57 °F 30.02 in Calm   3 mph 62.1% 0.00 in 199 W/m2
14:34 70.3 °F 57.4 °F 30.02 in SW 0.7 mph 3 mph 63.7% 0.00 in 167 W/m2
14:39 70.3 °F 58.8 °F 30.02 in SW 1 mph 2 mph 66.9% 0.00 in 243 W/m2
14:44 70.3 °F 58.1 °F 30.02 in SSW 1.3 mph 3 mph 65.3% 0.00 in 317 W/m2
14:49 70.3 °F 58 °F 30.02 in SW 0.6 mph 3 mph 65% 0.00 in 208 W/m2
14:54 70.2 °F 57.6 °F 30.02 in WSW 0.1 mph 3 mph 64.4% 0.00 in 201 W/m2
14:59 70.3 °F 56.3 °F 30.02 in SSE 0.6 mph 5 mph 61.3% 0.00 in 157 W/m2
15:04 70.3 °F 55.6 °F 30.01 in WNW 0.1 mph 2 mph 59.6% 0.00 in 109 W/m2
15:09 70.3 °F 54.7 °F 30.01 in Calm     57.7% 0.00 in 118 W/m2
15:14 70.2 °F 54.9 °F 30.01 in South 0.6 mph 2 mph 58.4% 0.00 in 116 W/m2
15:19 70.3 °F 54.1 °F 30.01 in SSW 0.4 mph 2 mph 56.4% 0.00 in 72 W/m2
15:24 70.5 °F 54.7 °F 30.01 in SW 0.4 mph 2 mph 57.3% 0.00 in 69 W/m2
15:29 70.7 °F 54.7 °F 30.01 in SW 0.4 mph 2 mph 56.8% 0.00 in 67 W/m2
15:34 70.9 °F 54.1 °F 30.00 in West 0.5 mph 2 mph 55.4% 0.00 in 106 W/m2
15:39 70.9 °F 53.1 °F 30.00 in SSW 1.1 mph 7 mph 53.3% 0.00 in 81 W/m2
15:44 71 °F 53.7 °F 30.00 in SSW 1.6 mph 7 mph 54.4% 0.00 in 72 W/m2
15:49 71.2 °F 54.1 °F 30.00 in SW 2.4 mph 8 mph 54.8% 0.00 in 146 W/m2
15:54 71.2 °F 55.1 °F 30.00 in SW 0.6 mph 3 mph 56.9% 0.00 in 116 W/m2
15:59 71.1 °F 55 °F 30.00 in West 0.1 mph 2 mph 56.8% 0.00 in 74 W/m2
16:04 71.1 °F 54.8 °F 29.99 in West 0.1 mph 1 mph 56.3% 0.00 in 114 W/m2
16:09 71.1 °F 55.2 °F 29.99 in East 0.7 mph 6 mph 57.1% 0.00 in 135 W/m2
16:14 71.2 °F 55.5 °F 29.99 in WSW 1.9 mph 6 mph 57.5% 0.00 in 121 W/m2
16:19 71.3 °F 56.1 °F 29.99 in SW 1.5 mph 7 mph 58.7% 0.00 in 70 W/m2
16:24 71.3 °F 55.6 °F 29.99 in SW 0.1 mph 1 mph 57.6% 0.00 in 62 W/m2
16:29 71.3 °F 56.4 °F 29.99 in SW 0.4 mph 6 mph 59.4% 0.00 in 77 W/m2
16:34 71.3 °F 56.9 °F 29.98 in SW 1.2 mph 5 mph 60.4% 0.00 in 53 W/m2
16:39 71.2 °F 57 °F 29.98 in SW 0.5 mph 5 mph 60.9% 0.00 in 51 W/m2
16:44 70.9 °F 55.3 °F 29.98 in West 0.8 mph 3 mph 57.8% 0.00 in 44 W/m2
16:49 70.8 °F 55.2 °F 29.98 in SW 0.4 mph 3 mph 57.7% 0.00 in 48 W/m2
16:54 70.8 °F 54.9 °F 29.98 in WSW 0.6 mph 5 mph 57.2% 0.00 in 42 W/m2
16:59 70.6 °F 56 °F 29.98 in SW 0.7 mph 5 mph 59.9% 0.00 in 44 W/m2
17:04 70.4 °F 56.5 °F 29.98 in WSW 0.1 mph 2 mph 61.6% 0.00 in 63 W/m2
17:09 70.2 °F 57.1 °F 29.98 in Calm   1 mph 63.2% 0.00 in 74 W/m2
17:14 70 °F 57.5 °F 29.99 in West 0.1 mph 1 mph 64.6% 0.00 in 74 W/m2
17:19 69.9 °F 58.6 °F 29.99 in Calm     67.4% 0.00 in 63 W/m2
17:24 69.7 °F 58.5 °F 29.99 in Calm     67.7% 0.00 in 58 W/m2
17:29 69.4 °F 58.6 °F 29.99 in West 0.2 mph 1 mph 68.4% 0.00 in 40 W/m2
17:34 69 °F 59.2 °F 29.99 in Calm   1 mph 70.8% 0.00 in 37 W/m2
17:39 68.5 °F 58.7 °F 29.99 in Calm   1 mph 71% 0.00 in 35 W/m2
17:44 68 °F 58.6 °F 29.99 in WNW 0.2 mph 1 mph 71.9% 0.00 in 35 W/m2
17:49 67.5 °F 58.9 °F 29.99 in Calm   1 mph 74% 0.00 in 40 W/m2
17:54 66.9 °F 59.1 °F 29.99 in Calm     75.9% 0.00 in 35 W/m2
17:59 66.4 °F 59.4 °F 29.99 in Calm     78.1% 0.00 in 33 W/m2
18:04 65.9 °F 59.5 °F 29.98 in Calm     79.6% 0.00 in 32 W/m2
18:09 65.4 °F 59.6 °F 29.98 in Calm     81.4% 0.00 in 28 W/m2
18:14 64.9 °F 59.6 °F 29.98 in Calm     82.8% 0.00 in 23 W/m2
18:19 64.6 °F 59.8 °F 29.98 in Calm     84.4% 0.00 in 19 W/m2
18:24 64.2 °F 59.6 °F 29.98 in Calm     85% 0.00 in 18 W/m2
18:29 63.9 °F 59.6 °F 29.99 in Calm     86% 0.00 in 16 W/m2
18:34 63.6 °F 59.3 °F 29.99 in Calm     86.1% 0.00 in 14 W/m2
18:39 63.3 °F 59.4 °F 29.99 in Calm     87.2% 0.00 in 14 W/m2
18:44 63 °F 59.4 °F 29.99 in Calm     88% 0.00 in 12 W/m2
18:49 62.7 °F 59.3 °F 29.99 in Calm     88.8% 0.00 in 11 W/m2
18:54 62.4 °F 59.4 °F 29.99 in Calm     89.8% 0.00 in 11 W/m2
18:59 62.2 °F 59.2 °F 29.99 in Calm     90.2% 0.00 in 9 W/m2
19:04 61.9 °F 59.2 °F 29.99 in Calm     91% 0.00 in 7 W/m2
19:09 61.5 °F 59.1 °F 29.99 in Calm     91.6% 0.00 in 5 W/m2
19:14 61.2 °F 58.9 °F 29.99 in Calm     92% 0.00 in 0 W/m2
19:19 61 °F 58.8 °F 29.99 in Calm     92.5% 0.00 in 0 W/m2
19:24 60.7 °F 58.7 °F 29.99 in Calm     93% 0.00 in 0 W/m2
Lisbon, New Hampshire, USA
Compliments of Weather Underground - 3.75 mb